sensor_id;sensor_type;location;lat;lon;timestamp;pressure;altitude;pressure_sealevel;temperature
24639;BMP180;1641;51.306;12.384;2023-07-02T00:02:22;99161.00;;;20.10
24639;BMP180;1641;51.306;12.384;2023-07-02T00:04:47;99148.00;;;20.10
24639;BMP180;1641;51.306;12.384;2023-07-02T00:07:13;99151.00;;;20.10
24639;BMP180;1641;51.306;12.384;2023-07-02T00:09:39;99152.00;;;20.10
24639;BMP180;1641;51.306;12.384;2023-07-02T00:12:05;99156.00;;;20.20
24639;BMP180;1641;51.306;12.384;2023-07-02T00:14:31;99155.00;;;20.30
24639;BMP180;1641;51.306;12.384;2023-07-02T00:16:56;99156.00;;;20.40
24639;BMP180;1641;51.306;12.384;2023-07-02T00:19:21;99154.00;;;20.10
24639;BMP180;1641;51.306;12.384;2023-07-02T00:21:47;99162.00;;;20.00
24639;BMP180;1641;51.306;12.384;2023-07-02T00:24:13;99158.00;;;20.00
24639;BMP180;1641;51.306;12.384;2023-07-02T00:26:38;99167.00;;;20.10
24639;BMP180;1641;51.306;12.384;2023-07-02T00:29:05;99165.00;;;20.30
24639;BMP180;1641;51.306;12.384;2023-07-02T00:31:31;99140.00;;;20.20
24639;BMP180;1641;51.306;12.384;2023-07-02T00:33:57;99160.00;;;20.10
24639;BMP180;1641;51.306;12.384;2023-07-02T00:36:22;99162.00;;;20.20
24639;BMP180;1641;51.306;12.384;2023-07-02T00:38:48;99144.00;;;20.10
24639;BMP180;1641;51.306;12.384;2023-07-02T00:41:14;99163.00;;;19.90
24639;BMP180;1641;51.306;12.384;2023-07-02T00:43:40;99164.00;;;20.10
24639;BMP180;1641;51.306;12.384;2023-07-02T00:46:10;99141.00;;;20.30
24639;BMP180;1641;51.306;12.384;2023-07-02T00:48:38;99165.00;;;20.20
24639;BMP180;1641;51.306;12.384;2023-07-02T00:51:03;99161.00;;;20.40
24639;BMP180;1641;51.306;12.384;2023-07-02T00:53:29;99160.00;;;20.30
24639;BMP180;1641;51.306;12.384;2023-07-02T00:55:54;99170.00;;;20.20
24639;BMP180;1641;51.306;12.384;2023-07-02T00:58:19;99169.00;;;20.40
24639;BMP180;1641;51.306;12.384;2023-07-02T01:00:46;99160.00;;;20.60
24639;BMP180;1641;51.306;12.384;2023-07-02T01:03:11;99165.00;;;20.80
24639;BMP180;1641;51.306;12.384;2023-07-02T01:05:36;99158.00;;;20.40
24639;BMP180;1641;51.306;12.384;2023-07-02T01:08:03;99164.00;;;20.40
24639;BMP180;1641;51.306;12.384;2023-07-02T01:10:29;99164.00;;;20.30
24639;BMP180;1641;51.306;12.384;2023-07-02T01:12:57;99153.00;;;20.30
24639;BMP180;1641;51.306;12.384;2023-07-02T01:15:25;99168.00;;;20.20
24639;BMP180;1641;51.306;12.384;2023-07-02T01:17:51;99162.00;;;20.40
24639;BMP180;1641;51.306;12.384;2023-07-02T01:20:18;99156.00;;;20.70
24639;BMP180;1641;51.306;12.384;2023-07-02T01:22:46;99165.00;;;20.90
24639;BMP180;1641;51.306;12.384;2023-07-02T01:25:14;99159.00;;;21.00
24639;BMP180;1641;51.306;12.384;2023-07-02T01:27:40;99160.00;;;20.80
24639;BMP180;1641;51.306;12.384;2023-07-02T01:30:06;99154.00;;;20.60
24639;BMP180;1641;51.306;12.384;2023-07-02T01:32:31;99158.00;;;20.40
24639;BMP180;1641;51.306;12.384;2023-07-02T01:34:57;99157.00;;;20.40
24639;BMP180;1641;51.306;12.384;2023-07-02T01:37:24;99154.00;;;20.50
24639;BMP180;1641;51.306;12.384;2023-07-02T01:39:49;99165.00;;;20.30
24639;BMP180;1641;51.306;12.384;2023-07-02T01:42:16;99156.00;;;20.50
24639;BMP180;1641;51.306;12.384;2023-07-02T01:44:43;99156.00;;;20.50
24639;BMP180;1641;51.306;12.384;2023-07-02T01:47:09;99161.00;;;20.50
24639;BMP180;1641;51.306;12.384;2023-07-02T01:49:34;99143.00;;;20.40
24639;BMP180;1641;51.306;12.384;2023-07-02T01:52:01;99163.00;;;20.40
24639;BMP180;1641;51.306;12.384;2023-07-02T01:54:27;99168.00;;;20.40
24639;BMP180;1641;51.306;12.384;2023-07-02T01:56:53;99176.00;;;20.20
24639;BMP180;1641;51.306;12.384;2023-07-02T01:59:19;99147.00;;;20.30
24639;BMP180;1641;51.306;12.384;2023-07-02T02:01:44;99166.00;;;20.20
24639;BMP180;1641;51.306;12.384;2023-07-02T02:04:10;99181.00;;;20.40
24639;BMP180;1641;51.306;12.384;2023-07-02T02:06:36;99174.00;;;20.30
24639;BMP180;1641;51.306;12.384;2023-07-02T02:09:02;99178.00;;;20.30
24639;BMP180;1641;51.306;12.384;2023-07-02T02:11:29;99187.00;;;20.20
24639;BMP180;1641;51.306;12.384;2023-07-02T02:13:54;99189.00;;;20.10
24639;BMP180;1641;51.306;12.384;2023-07-02T02:16:20;99194.00;;;20.20
24639;BMP180;1641;51.306;12.384;2023-07-02T02:18:45;99188.00;;;20.30
24639;BMP180;1641;51.306;12.384;2023-07-02T02:21:10;99179.00;;;20.10
24639;BMP180;1641;51.306;12.384;2023-07-02T02:23:35;99186.00;;;20.00
24639;BMP180;1641;51.306;12.384;2023-07-02T02:26:00;99188.00;;;20.20
24639;BMP180;1641;51.306;12.384;2023-07-02T02:28:26;99184.00;;;20.20
24639;BMP180;1641;51.306;12.384;2023-07-02T02:30:51;99184.00;;;20.30
24639;BMP180;1641;51.306;12.384;2023-07-02T02:33:16;99185.00;;;20.30
24639;BMP180;1641;51.306;12.384;2023-07-02T02:35:41;99184.00;;;20.20
24639;BMP180;1641;51.306;12.384;2023-07-02T02:38:07;99171.00;;;20.10
24639;BMP180;1641;51.306;12.384;2023-07-02T02:40:32;99188.00;;;20.10
24639;BMP180;1641;51.306;12.384;2023-07-02T02:42:58;99178.00;;;20.00
24639;BMP180;1641;51.306;12.384;2023-07-02T02:45:23;99175.00;;;20.00
24639;BMP180;1641;51.306;12.384;2023-07-02T02:47:48;99171.00;;;20.00
24639;BMP180;1641;51.306;12.384;2023-07-02T02:50:13;99200.00;;;20.00
24639;BMP180;1641;51.306;12.384;2023-07-02T02:52:39;99182.00;;;19.90
24639;BMP180;1641;51.306;12.384;2023-07-02T02:55:06;99197.00;;;20.00
24639;BMP180;1641;51.306;12.384;2023-07-02T02:57:32;99203.00;;;19.70
24639;BMP180;1641;51.306;12.384;2023-07-02T02:59:57;99213.00;;;19.70
24639;BMP180;1641;51.306;12.384;2023-07-02T03:02:23;99202.00;;;19.70
24639;BMP180;1641;51.306;12.384;2023-07-02T03:04:48;99205.00;;;19.60
24639;BMP180;1641;51.306;12.384;2023-07-02T03:07:14;99202.00;;;19.80
24639;BMP180;1641;51.306;12.384;2023-07-02T03:09:39;99207.00;;;19.80
24639;BMP180;1641;51.306;12.384;2023-07-02T03:12:05;99206.00;;;19.90
24639;BMP180;1641;51.306;12.384;2023-07-02T03:14:31;99207.00;;;19.60
24639;BMP180;1641;51.306;12.384;2023-07-02T03:16:56;99209.00;;;19.80
24639;BMP180;1641;51.306;12.384;2023-07-02T03:19:21;99159.00;;;19.60
24639;BMP180;1641;51.306;12.384;2023-07-02T03:21:47;99217.00;;;19.60
24639;BMP180;1641;51.306;12.384;2023-07-02T03:24:12;99215.00;;;19.60
24639;BMP180;1641;51.306;12.384;2023-07-02T03:26:39;99222.00;;;19.80
24639;BMP180;1641;51.306;12.384;2023-07-02T03:29:04;99227.00;;;19.70
24639;BMP180;1641;51.306;12.384;2023-07-02T03:31:29;99224.00;;;19.70
24639;BMP180;1641;51.306;12.384;2023-07-02T03:33:55;99202.00;;;19.50
24639;BMP180;1641;51.306;12.384;2023-07-02T03:36:20;99219.00;;;19.60
24639;BMP180;1641;51.306;12.384;2023-07-02T03:38:45;99228.00;;;19.60
24639;BMP180;1641;51.306;12.384;2023-07-02T03:41:11;99233.00;;;19.40
24639;BMP180;1641;51.306;12.384;2023-07-02T03:43:36;99236.00;;;19.70
24639;BMP180;1641;51.306;12.384;2023-07-02T03:46:01;99232.00;;;19.70
24639;BMP180;1641;51.306;12.384;2023-07-02T03:48:26;99235.00;;;19.70
24639;BMP180;1641;51.306;12.384;2023-07-02T03:50:51;99237.00;;;19.70
24639;BMP180;1641;51.306;12.384;2023-07-02T03:53:17;99236.00;;;19.70
24639;BMP180;1641;51.306;12.384;2023-07-02T03:55:42;99240.00;;;19.90
24639;BMP180;1641;51.306;12.384;2023-07-02T03:58:07;99237.00;;;20.00
24639;BMP180;1641;51.306;12.384;2023-07-02T04:00:32;99238.00;;;19.80
24639;BMP180;1641;51.306;12.384;2023-07-02T04:02:58;99234.00;;;19.80
24639;BMP180;1641;51.306;12.384;2023-07-02T04:05:23;99245.00;;;19.90
24639;BMP180;1641;51.306;12.384;2023-07-02T04:07:48;99243.00;;;19.90
24639;BMP180;1641;51.306;12.384;2023-07-02T04:10:14;99231.00;;;19.80
24639;BMP180;1641;51.306;12.384;2023-07-02T04:12:39;99254.00;;;19.60
24639;BMP180;1641;51.306;12.384;2023-07-02T04:15:05;99231.00;;;19.70
24639;BMP180;1641;51.306;12.384;2023-07-02T04:17:30;99255.00;;;19.50
24639;BMP180;1641;51.306;12.384;2023-07-02T04:19:57;99261.00;;;19.60
24639;BMP180;1641;51.306;12.384;2023-07-02T04:22:22;99257.00;;;19.60
24639;BMP180;1641;51.306;12.384;2023-07-02T04:24:48;99268.00;;;19.60
24639;BMP180;1641;51.306;12.384;2023-07-02T04:27:15;99267.00;;;19.70
24639;BMP180;1641;51.306;12.384;2023-07-02T04:29:42;99236.00;;;19.50
24639;BMP180;1641;51.306;12.384;2023-07-02T04:32:08;99267.00;;;19.80
24639;BMP180;1641;51.306;12.384;2023-07-02T04:34:33;99266.00;;;19.80
24639;BMP180;1641;51.306;12.384;2023-07-02T04:37:01;99272.00;;;20.10
24639;BMP180;1641;51.306;12.384;2023-07-02T04:39:26;99261.00;;;20.20
24639;BMP180;1641;51.306;12.384;2023-07-02T04:41:52;99253.00;;;20.50
24639;BMP180;1641;51.306;12.384;2023-07-02T04:44:17;99224.00;;;20.30
24639;BMP180;1641;51.306;12.384;2023-07-02T04:46:43;99259.00;;;19.80
24639;BMP180;1641;51.306;12.384;2023-07-02T04:49:08;99258.00;;;19.80
24639;BMP180;1641;51.306;12.384;2023-07-02T04:51:33;99240.00;;;19.60
24639;BMP180;1641;51.306;12.384;2023-07-02T04:53:58;99251.00;;;19.80
24639;BMP180;1641;51.306;12.384;2023-07-02T04:56:24;99257.00;;;19.50
24639;BMP180;1641;51.306;12.384;2023-07-02T04:58:49;99284.00;;;19.40
24639;BMP180;1641;51.306;12.384;2023-07-02T05:01:14;99279.00;;;19.80
24639;BMP180;1641;51.306;12.384;2023-07-02T05:03:39;99279.00;;;20.10
24639;BMP180;1641;51.306;12.384;2023-07-02T05:06:05;99278.00;;;20.10
24639;BMP180;1641;51.306;12.384;2023-07-02T05:08:30;99283.00;;;20.20
24639;BMP180;1641;51.306;12.384;2023-07-02T05:10:55;99275.00;;;20.40
24639;BMP180;1641;51.306;12.384;2023-07-02T05:13:20;99282.00;;;20.50
24639;BMP180;1641;51.306;12.384;2023-07-02T05:15:46;99287.00;;;20.10
24639;BMP180;1641;51.306;12.384;2023-07-02T05:18:11;99265.00;;;20.40
24639;BMP180;1641;51.306;12.384;2023-07-02T05:20:36;99287.00;;;20.60
24639;BMP180;1641;51.306;12.384;2023-07-02T05:23:01;99283.00;;;20.80
24639;BMP180;1641;51.306;12.384;2023-07-02T05:25:27;99287.00;;;21.00
24639;BMP180;1641;51.306;12.384;2023-07-02T05:27:52;99284.00;;;21.30
24639;BMP180;1641;51.306;12.384;2023-07-02T05:30:29;99261.00;;;20.70
24639;BMP180;1641;51.306;12.384;2023-07-02T05:32:55;99291.00;;;21.00
24639;BMP180;1641;51.306;12.384;2023-07-02T05:35:20;99247.00;;;21.10
24639;BMP180;1641;51.306;12.384;2023-07-02T05:37:45;99287.00;;;21.50
24639;BMP180;1641;51.306;12.384;2023-07-02T05:40:11;99287.00;;;21.80
24639;BMP180;1641;51.306;12.384;2023-07-02T05:42:39;99304.00;;;21.70
24639;BMP180;1641;51.306;12.384;2023-07-02T05:45:04;99266.00;;;20.90
24639;BMP180;1641;51.306;12.384;2023-07-02T05:47:30;99314.00;;;21.30
24639;BMP180;1641;51.306;12.384;2023-07-02T05:49:55;99287.00;;;21.50
24639;BMP180;1641;51.306;12.384;2023-07-02T05:52:20;99305.00;;;21.90
24639;BMP180;1641;51.306;12.384;2023-07-02T05:54:47;99282.00;;;22.70
24639;BMP180;1641;51.306;12.384;2023-07-02T05:57:13;99319.00;;;22.20
24639;BMP180;1641;51.306;12.384;2023-07-02T05:59:41;99317.00;;;22.60
24639;BMP180;1641;51.306;12.384;2023-07-02T06:02:06;99272.00;;;21.90
24639;BMP180;1641;51.306;12.384;2023-07-02T06:04:31;99250.00;;;22.10
24639;BMP180;1641;51.306;12.384;2023-07-02T06:06:57;99305.00;;;22.40
24639;BMP180;1641;51.306;12.384;2023-07-02T06:09:22;99311.00;;;23.70
24639;BMP180;1641;51.306;12.384;2023-07-02T06:11:56;99297.00;;;24.50
24639;BMP180;1641;51.306;12.384;2023-07-02T06:14:25;99304.00;;;25.80
24639;BMP180;1641;51.306;12.384;2023-07-02T06:16:53;99307.00;;;25.60
24639;BMP180;1641;51.306;12.384;2023-07-02T06:19:22;99277.00;;;26.50
24639;BMP180;1641;51.306;12.384;2023-07-02T06:21:50;99305.00;;;26.40
24639;BMP180;1641;51.306;12.384;2023-07-02T06:24:15;99293.00;;;25.30
24639;BMP180;1641;51.306;12.384;2023-07-02T06:26:40;99317.00;;;26.10
24639;BMP180;1641;51.306;12.384;2023-07-02T06:29:06;99308.00;;;26.00
24639;BMP180;1641;51.306;12.384;2023-07-02T06:31:31;99309.00;;;26.30
24639;BMP180;1641;51.306;12.384;2023-07-02T06:33:57;99291.00;;;25.70
24639;BMP180;1641;51.306;12.384;2023-07-02T06:36:31;99290.00;;;24.20
24639;BMP180;1641;51.306;12.384;2023-07-02T06:38:59;99276.00;;;23.80
24639;BMP180;1641;51.306;12.384;2023-07-02T06:41:24;99329.00;;;23.80
24639;BMP180;1641;51.306;12.384;2023-07-02T06:43:50;99319.00;;;24.60
24639;BMP180;1641;51.306;12.384;2023-07-02T06:46:15;99330.00;;;24.40
24639;BMP180;1641;51.306;12.384;2023-07-02T06:48:41;99292.00;;;24.30
24639;BMP180;1641;51.306;12.384;2023-07-02T06:51:06;99320.00;;;25.40
24639;BMP180;1641;51.306;12.384;2023-07-02T06:53:36;99328.00;;;25.70
24639;BMP180;1641;51.306;12.384;2023-07-02T06:56:04;99328.00;;;25.40
24639;BMP180;1641;51.306;12.384;2023-07-02T06:58:30;99319.00;;;26.10
24639;BMP180;1641;51.306;12.384;2023-07-02T07:00:58;99333.00;;;27.10
24639;BMP180;1641;51.306;12.384;2023-07-02T07:03:27;99309.00;;;29.10
24639;BMP180;1641;51.306;12.384;2023-07-02T07:05:53;99343.00;;;28.50
24639;BMP180;1641;51.306;12.384;2023-07-02T07:08:18;99337.00;;;29.10
24639;BMP180;1641;51.306;12.384;2023-07-02T07:10:46;99319.00;;;29.70
24639;BMP180;1641;51.306;12.384;2023-07-02T07:13:18;99348.00;;;30.00
24639;BMP180;1641;51.306;12.384;2023-07-02T07:15:44;99343.00;;;30.60
24639;BMP180;1641;51.306;12.384;2023-07-02T07:18:12;99333.00;;;30.70
24639;BMP180;1641;51.306;12.384;2023-07-02T07:20:39;99347.00;;;30.00
24639;BMP180;1641;51.306;12.384;2023-07-02T07:23:15;99349.00;;;28.30
24639;BMP180;1641;51.306;12.384;2023-07-02T07:25:41;99355.00;;;28.40
24639;BMP180;1641;51.306;12.384;2023-07-02T07:28:13;99345.00;;;28.90
24639;BMP180;1641;51.306;12.384;2023-07-02T07:30:42;99355.00;;;28.50
24639;BMP180;1641;51.306;12.384;2023-07-02T07:33:07;99358.00;;;26.30
24639;BMP180;1641;51.306;12.384;2023-07-02T07:35:32;99355.00;;;27.50
24639;BMP180;1641;51.306;12.384;2023-07-02T07:38:01;99339.00;;;26.90
24639;BMP180;1641;51.306;12.384;2023-07-02T07:40:26;99341.00;;;25.80
24639;BMP180;1641;51.306;12.384;2023-07-02T07:42:51;99353.00;;;24.90
24639;BMP180;1641;51.306;12.384;2023-07-02T07:45:17;99363.00;;;24.80
24639;BMP180;1641;51.306;12.384;2023-07-02T07:47:42;99344.00;;;24.80
24639;BMP180;1641;51.306;12.384;2023-07-02T07:50:08;99313.00;;;24.70
24639;BMP180;1641;51.306;12.384;2023-07-02T07:52:38;99349.00;;;25.00
24639;BMP180;1641;51.306;12.384;2023-07-02T07:55:05;99353.00;;;25.60
24639;BMP180;1641;51.306;12.384;2023-07-02T07:57:30;99356.00;;;25.40
24639;BMP180;1641;51.306;12.384;2023-07-02T07:59:58;99348.00;;;25.30
24639;BMP180;1641;51.306;12.384;2023-07-02T08:02:24;99358.00;;;25.20
24639;BMP180;1641;51.306;12.384;2023-07-02T08:04:49;99318.00;;;25.40
24639;BMP180;1641;51.306;12.384;2023-07-02T08:07:14;99321.00;;;25.10
24639;BMP180;1641;51.306;12.384;2023-07-02T08:09:43;99360.00;;;25.10
24639;BMP180;1641;51.306;12.384;2023-07-02T08:12:11;99333.00;;;23.90
24639;BMP180;1641;51.306;12.384;2023-07-02T08:14:37;99357.00;;;23.50
24639;BMP180;1641;51.306;12.384;2023-07-02T08:17:02;99364.00;;;24.10
24639;BMP180;1641;51.306;12.384;2023-07-02T08:19:27;99367.00;;;24.50
24639;BMP180;1641;51.306;12.384;2023-07-02T08:21:53;99361.00;;;24.30
24639;BMP180;1641;51.306;12.384;2023-07-02T08:24:18;99352.00;;;24.40
24639;BMP180;1641;51.306;12.384;2023-07-02T08:26:43;99342.00;;;24.00
24639;BMP180;1641;51.306;12.384;2023-07-02T08:29:10;99360.00;;;24.10
24639;BMP180;1641;51.306;12.384;2023-07-02T08:31:35;99353.00;;;24.10
24639;BMP180;1641;51.306;12.384;2023-07-02T08:34:00;99339.00;;;23.60
24639;BMP180;1641;51.306;12.384;2023-07-02T08:36:26;99360.00;;;23.80
24639;BMP180;1641;51.306;12.384;2023-07-02T08:38:51;99370.00;;;23.40
24639;BMP180;1641;51.306;12.384;2023-07-02T08:41:16;99356.00;;;23.80
24639;BMP180;1641;51.306;12.384;2023-07-02T08:43:43;99376.00;;;23.50
24639;BMP180;1641;51.306;12.384;2023-07-02T08:46:11;99371.00;;;24.10
24639;BMP180;1641;51.306;12.384;2023-07-02T08:48:43;99367.00;;;24.20
24639;BMP180;1641;51.306;12.384;2023-07-02T08:51:08;99380.00;;;23.80
24639;BMP180;1641;51.306;12.384;2023-07-02T08:53:34;99379.00;;;24.00
24639;BMP180;1641;51.306;12.384;2023-07-02T08:56:03;99365.00;;;24.30
24639;BMP180;1641;51.306;12.384;2023-07-02T08:58:29;99368.00;;;24.40
24639;BMP180;1641;51.306;12.384;2023-07-02T09:01:07;99376.00;;;23.70
24639;BMP180;1641;51.306;12.384;2023-07-02T09:03:42;99370.00;;;23.20
24639;BMP180;1641;51.306;12.384;2023-07-02T09:06:17;99377.00;;;23.00
24639;BMP180;1641;51.306;12.384;2023-07-02T09:08:46;99353.00;;;23.50
24639;BMP180;1641;51.306;12.384;2023-07-02T09:11:13;99379.00;;;23.60
24639;BMP180;1641;51.306;12.384;2023-07-02T09:13:51;99373.00;;;23.40
24639;BMP180;1641;51.306;12.384;2023-07-02T09:16:32;99366.00;;;23.80
24639;BMP180;1641;51.306;12.384;2023-07-02T09:19:04;99371.00;;;23.50
24639;BMP180;1641;51.306;12.384;2023-07-02T09:21:48;99368.00;;;23.50
24639;BMP180;1641;51.306;12.384;2023-07-02T09:24:22;99379.00;;;23.20
24639;BMP180;1641;51.306;12.384;2023-07-02T09:26:52;99363.00;;;22.80
24639;BMP180;1641;51.306;12.384;2023-07-02T09:29:28;99386.00;;;22.70
24639;BMP180;1641;51.306;12.384;2023-07-02T09:31:58;99382.00;;;23.00
24639;BMP180;1641;51.306;12.384;2023-07-02T09:36:53;99356.00;;;25.40
24639;BMP180;1641;51.306;12.384;2023-07-02T09:39:24;99362.00;;;26.80
24639;BMP180;1641;51.306;12.384;2023-07-02T09:41:50;99361.00;;;27.00
24639;BMP180;1641;51.306;12.384;2023-07-02T09:44:17;99372.00;;;28.40
24639;BMP180;1641;51.306;12.384;2023-07-02T09:46:51;99372.00;;;29.30
24639;BMP180;1641;51.306;12.384;2023-07-02T09:49:20;99366.00;;;28.80
24639;BMP180;1641;51.306;12.384;2023-07-02T09:51:45;99368.00;;;28.70
24639;BMP180;1641;51.306;12.384;2023-07-02T09:54:14;99372.00;;;28.80
24639;BMP180;1641;51.306;12.384;2023-07-02T09:56:45;99364.00;;;28.90
24639;BMP180;1641;51.306;12.384;2023-07-02T09:59:10;99380.00;;;29.80
24639;BMP180;1641;51.306;12.384;2023-07-02T10:01:35;99380.00;;;29.30
24639;BMP180;1641;51.306;12.384;2023-07-02T10:04:12;99371.00;;;28.60
24639;BMP180;1641;51.306;12.384;2023-07-02T10:06:49;99369.00;;;27.90
24639;BMP180;1641;51.306;12.384;2023-07-02T10:09:16;99386.00;;;27.00
24639;BMP180;1641;51.306;12.384;2023-07-02T10:11:45;99377.00;;;26.20
24639;BMP180;1641;51.306;12.384;2023-07-02T10:14:11;99382.00;;;26.10
24639;BMP180;1641;51.306;12.384;2023-07-02T10:16:53;99379.00;;;26.40
24639;BMP180;1641;51.306;12.384;2023-07-02T10:19:18;99374.00;;;26.60
24639;BMP180;1641;51.306;12.384;2023-07-02T10:21:44;99360.00;;;26.30
24639;BMP180;1641;51.306;12.384;2023-07-02T10:24:16;99392.00;;;26.20
24639;BMP180;1641;51.306;12.384;2023-07-02T10:26:56;99394.00;;;25.60
24639;BMP180;1641;51.306;12.384;2023-07-02T10:29:25;99392.00;;;24.90
24639;BMP180;1641;51.306;12.384;2023-07-02T10:31:51;99369.00;;;24.80
24639;BMP180;1641;51.306;12.384;2023-07-02T10:34:35;99392.00;;;26.00
24639;BMP180;1641;51.306;12.384;2023-07-02T10:37:01;99391.00;;;25.60
24639;BMP180;1641;51.306;12.384;2023-07-02T10:39:28;99390.00;;;25.90
24639;BMP180;1641;51.306;12.384;2023-07-02T10:42:06;99347.00;;;25.10
24639;BMP180;1641;51.306;12.384;2023-07-02T10:44:32;99383.00;;;24.70
24639;BMP180;1641;51.306;12.384;2023-07-02T10:46:57;99337.00;;;24.50
24639;BMP180;1641;51.306;12.384;2023-07-02T10:49:30;99391.00;;;24.70
24639;BMP180;1641;51.306;12.384;2023-07-02T10:52:02;99392.00;;;24.70
24639;BMP180;1641;51.306;12.384;2023-07-02T10:54:58;99397.00;;;24.40
24639;BMP180;1641;51.306;12.384;2023-07-02T10:57:24;99410.00;;;24.30
24639;BMP180;1641;51.306;12.384;2023-07-02T10:59:52;99397.00;;;24.60
24639;BMP180;1641;51.306;12.384;2023-07-02T11:02:17;99388.00;;;25.00
24639;BMP180;1641;51.306;12.384;2023-07-02T11:04:42;99411.00;;;25.00
24639;BMP180;1641;51.306;12.384;2023-07-02T11:07:10;99416.00;;;24.70
24639;BMP180;1641;51.306;12.384;2023-07-02T11:09:35;99424.00;;;24.50
24639;BMP180;1641;51.306;12.384;2023-07-02T11:12:03;99433.00;;;24.70
24639;BMP180;1641;51.306;12.384;2023-07-02T11:14:36;99436.00;;;25.40
24639;BMP180;1641;51.306;12.384;2023-07-02T11:17:06;99423.00;;;24.30
24639;BMP180;1641;51.306;12.384;2023-07-02T11:19:35;99425.00;;;24.30
24639;BMP180;1641;51.306;12.384;2023-07-02T11:22:01;99426.00;;;24.40
24639;BMP180;1641;51.306;12.384;2023-07-02T11:24:35;99417.00;;;24.60
24639;BMP180;1641;51.306;12.384;2023-07-02T11:27:02;99418.00;;;24.00
24639;BMP180;1641;51.306;12.384;2023-07-02T11:29:29;99406.00;;;24.90
24639;BMP180;1641;51.306;12.384;2023-07-02T11:32:05;99419.00;;;24.80
24639;BMP180;1641;51.306;12.384;2023-07-02T11:34:33;99429.00;;;23.70
24639;BMP180;1641;51.306;12.384;2023-07-02T11:36:58;99424.00;;;23.90
24639;BMP180;1641;51.306;12.384;2023-07-02T11:39:24;99401.00;;;23.80
24639;BMP180;1641;51.306;12.384;2023-07-02T11:41:49;99430.00;;;24.00
24639;BMP180;1641;51.306;12.384;2023-07-02T11:44:15;99423.00;;;24.40
24639;BMP180;1641;51.306;12.384;2023-07-02T11:46:40;99434.00;;;24.20
24639;BMP180;1641;51.306;12.384;2023-07-02T11:49:06;99422.00;;;24.20
24639;BMP180;1641;51.306;12.384;2023-07-02T11:51:35;99375.00;;;24.40
24639;BMP180;1641;51.306;12.384;2023-07-02T11:54:00;99421.00;;;24.40
24639;BMP180;1641;51.306;12.384;2023-07-02T11:56:25;99426.00;;;24.60
24639;BMP180;1641;51.306;12.384;2023-07-02T11:58:50;99431.00;;;24.70
24639;BMP180;1641;51.306;12.384;2023-07-02T12:01:16;99432.00;;;24.50
24639;BMP180;1641;51.306;12.384;2023-07-02T12:03:41;99411.00;;;24.40
24639;BMP180;1641;51.306;12.384;2023-07-02T12:06:06;99428.00;;;24.60
24639;BMP180;1641;51.306;12.384;2023-07-02T12:08:31;99434.00;;;24.80
24639;BMP180;1641;51.306;12.384;2023-07-02T12:10:57;99424.00;;;25.60
24639;BMP180;1641;51.306;12.384;2023-07-02T12:13:22;99420.00;;;25.60
24639;BMP180;1641;51.306;12.384;2023-07-02T12:15:47;99420.00;;;25.70
24639;BMP180;1641;51.306;12.384;2023-07-02T12:18:13;99431.00;;;25.70
24639;BMP180;1641;51.306;12.384;2023-07-02T12:20:39;99438.00;;;24.60
24639;BMP180;1641;51.306;12.384;2023-07-02T12:23:05;99438.00;;;24.00
24639;BMP180;1641;51.306;12.384;2023-07-02T12:25:30;99428.00;;;24.70
24639;BMP180;1641;51.306;12.384;2023-07-02T12:27:56;99435.00;;;24.60
24639;BMP180;1641;51.306;12.384;2023-07-02T12:30:21;99430.00;;;24.60
24639;BMP180;1641;51.306;12.384;2023-07-02T12:32:46;99422.00;;;24.60
24639;BMP180;1641;51.306;12.384;2023-07-02T12:35:12;99436.00;;;24.30
24639;BMP180;1641;51.306;12.384;2023-07-02T12:37:47;99438.00;;;24.00
24639;BMP180;1641;51.306;12.384;2023-07-02T12:40:13;99433.00;;;24.60
24639;BMP180;1641;51.306;12.384;2023-07-02T12:42:41;99429.00;;;25.40
24639;BMP180;1641;51.306;12.384;2023-07-02T12:45:07;99422.00;;;25.70
24639;BMP180;1641;51.306;12.384;2023-07-02T12:47:32;99427.00;;;25.70
24639;BMP180;1641;51.306;12.384;2023-07-02T12:49:57;99427.00;;;25.90
24639;BMP180;1641;51.306;12.384;2023-07-02T12:52:23;99447.00;;;26.00
24639;BMP180;1641;51.306;12.384;2023-07-02T12:54:48;99445.00;;;26.30
24639;BMP180;1641;51.306;12.384;2023-07-02T12:57:17;99426.00;;;26.30
24639;BMP180;1641;51.306;12.384;2023-07-02T12:59:43;99443.00;;;25.80
24639;BMP180;1641;51.306;12.384;2023-07-02T13:02:09;99445.00;;;25.90
24639;BMP180;1641;51.306;12.384;2023-07-02T13:04:35;99449.00;;;25.20
24639;BMP180;1641;51.306;12.384;2023-07-02T13:07:00;99452.00;;;25.30
24639;BMP180;1641;51.306;12.384;2023-07-02T13:09:26;99441.00;;;25.80
24639;BMP180;1641;51.306;12.384;2023-07-02T13:11:51;99449.00;;;25.80
24639;BMP180;1641;51.306;12.384;2023-07-02T13:14:16;99442.00;;;26.30
24639;BMP180;1641;51.306;12.384;2023-07-02T13:16:42;99414.00;;;26.50
24639;BMP180;1641;51.306;12.384;2023-07-02T13:19:10;99445.00;;;25.90
24639;BMP180;1641;51.306;12.384;2023-07-02T13:21:36;99427.00;;;26.00
24639;BMP180;1641;51.306;12.384;2023-07-02T13:24:01;99463.00;;;25.20
24639;BMP180;1641;51.306;12.384;2023-07-02T13:26:27;99455.00;;;25.20
24639;BMP180;1641;51.306;12.384;2023-07-02T13:28:53;99465.00;;;25.00
24639;BMP180;1641;51.306;12.384;2023-07-02T13:31:18;99473.00;;;24.90
24639;BMP180;1641;51.306;12.384;2023-07-02T13:33:43;99440.00;;;26.00
24639;BMP180;1641;51.306;12.384;2023-07-02T13:36:10;99465.00;;;26.20
24639;BMP180;1641;51.306;12.384;2023-07-02T13:38:35;99473.00;;;25.50
24639;BMP180;1641;51.306;12.384;2023-07-02T13:41:00;99460.00;;;25.30
24639;BMP180;1641;51.306;12.384;2023-07-02T13:43:26;99475.00;;;24.80
24639;BMP180;1641;51.306;12.384;2023-07-02T13:45:51;99447.00;;;25.00
24639;BMP180;1641;51.306;12.384;2023-07-02T13:48:17;99470.00;;;24.90
24639;BMP180;1641;51.306;12.384;2023-07-02T13:50:42;99443.00;;;24.80
24639;BMP180;1641;51.306;12.384;2023-07-02T13:53:08;99477.00;;;25.00
24639;BMP180;1641;51.306;12.384;2023-07-02T13:55:33;99478.00;;;24.80
24639;BMP180;1641;51.306;12.384;2023-07-02T13:57:58;99476.00;;;24.20
24639;BMP180;1641;51.306;12.384;2023-07-02T14:00:25;99473.00;;;24.80
24639;BMP180;1641;51.306;12.384;2023-07-02T14:02:50;99470.00;;;25.00
24639;BMP180;1641;51.306;12.384;2023-07-02T14:05:15;99482.00;;;24.90
24639;BMP180;1641;51.306;12.384;2023-07-02T14:07:41;99473.00;;;25.50
24639;BMP180;1641;51.306;12.384;2023-07-02T14:10:06;99460.00;;;25.40